createdAt,value
2023-02-01T00:02:10.058Z,15.60
2023-02-01T00:04:36.383Z,12.80
2023-02-01T00:07:02.697Z,9.25
2023-02-01T00:09:29.064Z,11.98
2023-02-01T00:11:55.339Z,11.48
2023-02-01T00:14:22.001Z,7.18
2023-02-01T00:16:48.291Z,14.50
2023-02-01T00:19:16.280Z,10.48
2023-02-01T00:21:42.722Z,9.55
2023-02-01T00:24:10.731Z,10.32
2023-02-01T00:26:45.551Z,12.10
2023-02-01T00:29:17.590Z,12.25
2023-02-01T00:31:44.789Z,11.43
2023-02-01T00:34:15.829Z,15.75
2023-02-01T00:36:43.412Z,9.15
2023-02-01T00:39:10.464Z,13.98
2023-02-01T00:41:36.777Z,10.88
2023-02-01T00:44:03.752Z,15.07
2023-02-01T00:46:30.344Z,9.75
2023-02-01T00:48:56.795Z,12.40
2023-02-01T00:51:26.108Z,13.82
2023-02-01T00:53:53.462Z,14.73
2023-02-01T00:56:20.279Z,6.97
2023-02-01T00:58:46.943Z,8.57
2023-02-01T01:01:16.528Z,7.95
2023-02-01T01:03:45.781Z,10.40
2023-02-01T01:06:15.194Z,11.18
2023-02-01T01:08:42.327Z,10.98
2023-02-01T01:11:30.849Z,11.85
2023-02-01T01:13:58.885Z,10.50
2023-02-01T01:16:27.545Z,5.97
2023-02-01T01:18:54.476Z,10.05
2023-02-01T01:21:20.961Z,6.03
2023-02-01T01:23:48.092Z,6.28
2023-02-01T01:26:17.719Z,10.45
2023-02-01T01:28:44.395Z,3.33
2023-02-01T01:31:12.523Z,10.40
2023-02-01T01:33:39.068Z,8.80
2023-02-01T01:36:07.289Z,9.63
2023-02-01T01:38:33.753Z,6.50
2023-02-01T01:41:00.099Z,7.72
2023-02-01T01:43:26.403Z,8.25
2023-02-01T01:45:52.697Z,7.70
2023-02-01T01:48:28.691Z,11.23
2023-02-01T01:51:02.196Z,9.23
2023-02-01T01:55:57.571Z,11.25
2023-02-01T01:58:26.944Z,11.82
2023-02-01T02:00:54.973Z,8.00
2023-02-01T02:03:47.926Z,10.07
2023-02-01T02:06:40.418Z,8.52
2023-02-01T02:09:07.229Z,7.57
2023-02-01T02:11:34.055Z,10.65
2023-02-01T02:14:00.955Z,9.93
2023-02-01T02:16:47.081Z,9.50
2023-02-01T02:19:31.650Z,12.20
2023-02-01T02:22:14.625Z,8.27
2023-02-01T02:25:03.719Z,7.15
2023-02-01T02:27:51.465Z,12.80
2023-02-01T02:30:36.803Z,10.40
2023-02-01T02:33:36.673Z,10.50
2023-02-01T02:36:13.320Z,8.85
2023-02-01T02:38:46.312Z,10.80
2023-02-01T02:41:28.658Z,11.70
2023-02-01T02:43:59.491Z,14.77
2023-02-01T02:46:32.929Z,10.63
2023-02-01T02:49:10.165Z,10.48
2023-02-01T02:52:05.988Z,11.23
2023-02-01T02:54:36.863Z,8.48
2023-02-01T02:57:06.913Z,12.60
2023-02-01T02:59:36.083Z,8.45
2023-02-01T03:02:02.802Z,13.30
2023-02-01T03:04:29.277Z,9.68
2023-02-01T03:06:55.803Z,7.68
2023-02-01T03:09:36.702Z,9.13
2023-02-01T03:12:10.156Z,8.80
2023-02-01T03:17:12.622Z,10.23
2023-02-01T03:19:44.669Z,10.98
2023-02-01T03:22:15.558Z,10.13
2023-02-01T03:24:44.242Z,11.50
2023-02-01T03:27:28.187Z,12.23
2023-02-01T03:30:09.439Z,11.35
2023-02-01T03:32:38.545Z,9.82
2023-02-01T03:35:05.282Z,7.78
2023-02-01T03:37:31.674Z,13.10
2023-02-01T03:40:02.190Z,9.18
2023-02-01T03:42:49.019Z,11.27
2023-02-01T03:45:41.339Z,14.75
2023-02-01T03:48:08.034Z,12.27
2023-02-01T03:50:37.614Z,16.08
2023-02-01T03:53:11.955Z,14.70
2023-02-01T03:55:38.731Z,7.93
2023-02-01T03:58:12.711Z,12.93
2023-02-01T04:00:39.931Z,8.48
2023-02-01T04:03:07.977Z,9.93
2023-02-01T04:05:35.056Z,14.43
2023-02-01T04:08:01.547Z,14.15
2023-02-01T04:10:27.955Z,6.53
2023-02-01T04:12:54.298Z,12.35
2023-02-01T04:15:20.640Z,10.15
2023-02-01T04:17:46.964Z,11.05
2023-02-01T04:20:13.384Z,10.25
2023-02-01T04:22:39.705Z,10.38
2023-02-01T04:25:06.709Z,11.38
2023-02-01T04:27:33.033Z,12.25
2023-02-01T04:29:59.334Z,12.35
2023-02-01T04:32:25.621Z,12.35
2023-02-01T04:34:52.045Z,10.98
2023-02-01T04:37:18.364Z,10.88
2023-02-01T04:39:44.689Z,12.85
2023-02-01T04:42:11.042Z,12.10
2023-02-01T04:44:37.365Z,14.07
2023-02-01T04:47:03.705Z,15.00
2023-02-01T04:49:29.988Z,12.98
2023-02-01T04:51:56.269Z,13.25
2023-02-01T04:54:22.556Z,16.92
2023-02-01T04:56:48.847Z,15.75
2023-02-01T04:59:15.160Z,11.10
2023-02-01T05:01:41.529Z,13.07
2023-02-01T05:04:07.978Z,12.20
2023-02-01T05:06:34.308Z,8.85
2023-02-01T05:09:00.624Z,11.02
2023-02-01T05:11:26.915Z,7.82
2023-02-01T05:13:53.285Z,11.35
2023-02-01T05:16:19.667Z,18.08
2023-02-01T05:18:46.410Z,6.85
2023-02-01T05:21:12.759Z,13.65
2023-02-01T05:23:39.031Z,11.30
2023-02-01T05:26:05.406Z,16.77
2023-02-01T05:28:31.679Z,9.10
2023-02-01T05:30:58.026Z,11.55
2023-02-01T05:33:24.375Z,9.88
2023-02-01T05:35:50.657Z,12.75
2023-02-01T05:38:16.920Z,11.50
2023-02-01T05:40:43.209Z,14.40
2023-02-01T05:43:09.491Z,9.25
2023-02-01T05:45:35.917Z,7.57
2023-02-01T05:48:02.233Z,16.80
2023-02-01T05:50:28.534Z,10.68
2023-02-01T05:52:54.864Z,11.82
2023-02-01T05:55:21.154Z,11.60
2023-02-01T05:57:47.470Z,12.05
2023-02-01T06:00:14.257Z,9.25
2023-02-01T06:02:40.660Z,11.45
2023-02-01T06:05:07.618Z,7.63
2023-02-01T06:07:33.945Z,10.10
2023-02-01T06:10:00.227Z,13.32
2023-02-01T06:12:26.552Z,11.57
2023-02-01T06:14:52.823Z,10.57
2023-02-01T06:17:19.085Z,10.50
2023-02-01T06:19:45.400Z,18.55
2023-02-01T06:22:11.690Z,10.52
2023-02-01T06:24:37.960Z,13.18
2023-02-01T06:27:04.328Z,17.30
2023-02-01T06:29:30.671Z,12.98
2023-02-01T06:31:57.064Z,11.13
2023-02-01T06:34:23.405Z,8.38
2023-02-01T06:36:49.894Z,11.65
2023-02-01T06:39:16.188Z,10.80
2023-02-01T06:41:47.347Z,10.35
2023-02-01T06:44:13.794Z,13.43
2023-02-01T06:46:40.605Z,11.40
2023-02-01T06:49:06.935Z,17.23
2023-02-01T06:51:33.277Z,16.80
2023-02-01T06:53:59.709Z,14.82
2023-02-01T06:56:26.418Z,12.63
2023-02-01T06:58:52.970Z,10.55
2023-02-01T07:01:19.603Z,16.20
2023-02-01T07:03:51.744Z,12.13
2023-02-01T07:06:18.922Z,11.98
2023-02-01T07:08:45.366Z,11.35
2023-02-01T07:11:13.937Z,15.25
2023-02-01T07:13:40.281Z,11.65
2023-02-01T07:16:10.261Z,13.63
2023-02-01T07:18:36.563Z,15.23
2023-02-01T07:21:02.905Z,11.38
2023-02-01T07:23:29.503Z,17.60
2023-02-01T07:25:57.949Z,12.90
2023-02-01T07:28:24.893Z,10.73
2023-02-01T07:30:51.676Z,12.30
2023-02-01T07:33:22.562Z,10.05
2023-02-01T07:35:50.120Z,11.20
2023-02-01T07:38:17.311Z,12.68
2023-02-01T07:40:44.232Z,11.25
2023-02-01T07:43:10.590Z,13.30
2023-02-01T07:45:37.650Z,5.85
2023-02-01T07:48:04.495Z,16.48
2023-02-01T07:50:31.145Z,12.32
2023-02-01T07:53:00.272Z,10.50
2023-02-01T07:55:26.574Z,12.45
2023-02-01T07:57:53.231Z,10.00
2023-02-01T08:00:20.106Z,11.40
2023-02-01T08:02:46.388Z,12.90
2023-02-01T08:05:12.697Z,11.07
2023-02-01T08:07:38.997Z,8.52
2023-02-01T08:10:05.808Z,14.57
2023-02-01T08:12:32.126Z,11.13
2023-02-01T08:14:58.422Z,7.72
2023-02-01T08:17:24.754Z,13.75
2023-02-01T08:19:51.105Z,9.80
2023-02-01T08:22:17.407Z,7.93
2023-02-01T08:24:43.735Z,13.40
2023-02-01T08:27:10.052Z,8.38
2023-02-01T08:29:36.384Z,6.65
2023-02-01T08:32:02.720Z,6.95
2023-02-01T08:34:29.272Z,7.72
2023-02-01T08:36:55.592Z,6.15
2023-02-01T08:39:21.880Z,8.82
2023-02-01T08:41:48.173Z,9.82
2023-02-01T08:44:14.447Z,6.30
2023-02-01T08:46:40.768Z,6.05
2023-02-01T08:49:07.072Z,10.27
2023-02-01T08:51:33.381Z,8.52
2023-02-01T08:53:59.673Z,7.00
2023-02-01T08:56:26.014Z,9.07
2023-02-01T08:58:52.302Z,7.75
2023-02-01T09:01:18.741Z,7.85
2023-02-01T09:03:46.651Z,10.05
2023-02-01T09:06:15.213Z,7.53
2023-02-01T09:08:41.856Z,7.65
2023-02-01T09:11:13.400Z,9.15
2023-02-01T09:13:39.754Z,6.57
2023-02-01T09:16:06.508Z,9.38
2023-02-01T09:18:33.042Z,8.07
2023-02-01T09:20:59.387Z,5.32
2023-02-01T09:23:25.724Z,7.47
2023-02-01T09:25:52.153Z,4.10
2023-02-01T09:28:19.208Z,5.72
2023-02-01T09:30:45.946Z,7.05
2023-02-01T09:33:12.365Z,4.03
2023-02-01T09:35:38.690Z,7.70
2023-02-01T09:38:05.020Z,4.88
2023-02-01T09:40:31.959Z,6.53
2023-02-01T09:42:58.247Z,3.20
2023-02-01T09:45:40.105Z,3.33
2023-02-01T09:48:15.200Z,7.68
2023-02-01T09:50:46.800Z,4.35
2023-02-01T09:53:22.166Z,4.95
2023-02-01T09:55:51.658Z,3.83
2023-02-01T09:58:30.868Z,5.07
2023-02-01T10:01:02.008Z,5.20
2023-02-01T10:03:32.688Z,5.47
2023-02-01T10:06:30.202Z,3.13
2023-02-01T10:09:09.192Z,4.38
2023-02-01T10:11:53.547Z,6.35
2023-02-01T10:14:38.519Z,4.38
2023-02-01T10:17:24.976Z,4.15
2023-02-01T10:19:56.946Z,2.00
2023-02-01T10:23:10.370Z,4.25
2023-02-01T10:25:49.236Z,4.00
2023-02-01T10:28:18.636Z,2.88
2023-02-01T10:30:47.752Z,5.65
2023-02-01T10:33:21.990Z,3.90
2023-02-01T10:35:55.143Z,2.97
2023-02-01T10:38:27.957Z,5.68
2023-02-01T10:40:58.963Z,3.25
2023-02-01T10:43:25.348Z,4.00
2023-02-01T10:45:52.038Z,3.50
2023-02-01T10:48:18.337Z,5.95
2023-02-01T10:50:54.615Z,6.20
2023-02-01T10:53:25.527Z,7.10
2023-02-01T10:55:54.518Z,5.75
2023-02-01T10:58:32.074Z,9.82
2023-02-01T11:01:01.904Z,4.30
2023-02-01T11:03:33.532Z,8.63
2023-02-01T11:06:00.795Z,4.32
2023-02-01T11:08:27.347Z,6.07
2023-02-01T11:11:03.051Z,4.47
2023-02-01T11:13:33.040Z,6.05
2023-02-01T11:16:02.320Z,4.45
2023-02-01T11:18:31.812Z,5.55
2023-02-01T11:20:59.956Z,6.10
2023-02-01T11:23:29.653Z,4.22
2023-02-01T11:25:58.807Z,4.63
2023-02-01T11:28:31.980Z,6.68
2023-02-01T11:31:02.535Z,5.97
2023-02-01T11:33:33.066Z,3.88
2023-02-01T11:35:59.535Z,6.43
2023-02-01T11:38:31.877Z,5.47
2023-02-01T11:41:21.853Z,5.95
2023-02-01T11:44:01.507Z,6.10
2023-02-01T11:46:36.738Z,5.72
2023-02-01T11:49:25.892Z,7.28
2023-02-01T11:52:06.689Z,7.93
2023-02-01T11:55:20.615Z,5.13
2023-02-01T11:57:55.080Z,8.60
2023-02-01T12:00:31.804Z,10.38
2023-02-01T12:03:29.268Z,7.65
2023-02-01T12:06:18.524Z,6.28
2023-02-01T12:09:06.360Z,7.45
2023-02-01T12:11:32.728Z,8.07
2023-02-01T12:14:35.925Z,6.53
2023-02-01T12:17:39.824Z,6.78
2023-02-01T12:20:11.809Z,5.85
2023-02-01T12:23:00.116Z,5.55
2023-02-01T12:25:40.950Z,8.23
2023-02-01T12:28:26.655Z,7.43
2023-02-01T12:31:27.214Z,4.45
2023-02-01T12:34:25.826Z,5.40
2023-02-01T12:37:01.261Z,6.07
2023-02-01T12:39:39.713Z,9.15
2023-02-01T12:42:30.034Z,7.60
2023-02-01T12:45:33.756Z,6.18
2023-02-01T12:48:31.040Z,5.53
2023-02-01T12:51:03.149Z,7.20
2023-02-01T12:53:55.145Z,8.80
2023-02-01T12:56:24.428Z,6.57
2023-02-01T12:58:54.396Z,4.78
2023-02-01T13:01:37.948Z,6.60
2023-02-01T13:04:20.176Z,11.95
2023-02-01T13:06:51.937Z,7.68
2023-02-01T13:09:26.393Z,7.13
2023-02-01T13:11:58.423Z,6.00
2023-02-01T13:14:36.513Z,5.82
2023-02-01T13:17:11.651Z,2.25
2023-02-01T13:19:55.066Z,1.98
2023-02-01T13:22:28.345Z,1.23
2023-02-01T13:25:06.434Z,2.08
2023-02-01T13:27:33.956Z,1.23
2023-02-01T13:33:51.529Z,2.28
2023-02-01T13:35:56.940Z,0.68
2023-02-01T13:38:57.424Z,3.47
2023-02-01T13:41:33.406Z,1.52
2023-02-01T13:44:05.110Z,2.63
2023-02-01T13:46:46.377Z,2.35
2023-02-01T13:49:32.675Z,3.70
2023-02-01T13:52:00.063Z,3.97
2023-02-01T13:54:40.927Z,7.22
2023-02-01T13:57:40.788Z,8.73
2023-02-01T14:00:25.467Z,9.88
2023-02-01T14:03:00.656Z,7.22
2023-02-01T14:05:27.104Z,10.15
2023-02-01T14:08:05.599Z,7.10
2023-02-01T14:10:48.131Z,6.88
2023-02-01T14:13:31.959Z,10.88
2023-02-01T14:16:04.369Z,7.40
2023-02-01T14:18:36.756Z,5.00
2023-02-01T14:21:34.808Z,9.75
2023-02-01T14:24:21.703Z,7.18
2023-02-01T14:26:50.809Z,7.95
2023-02-01T14:29:21.035Z,10.95
2023-02-01T14:31:59.630Z,8.07
2023-02-01T14:34:50.739Z,5.28
2023-02-01T14:37:20.048Z,6.03
2023-02-01T14:39:46.274Z,10.68
2023-02-01T14:42:31.311Z,6.30
2023-02-01T14:45:20.427Z,6.97
2023-02-01T14:47:48.829Z,9.45
2023-02-01T14:50:27.601Z,9.27
2023-02-01T14:53:09.195Z,7.40
2023-02-01T14:55:56.216Z,6.72
2023-02-01T14:58:25.283Z,8.80
2023-02-01T15:00:57.498Z,10.88
2023-02-01T15:03:35.881Z,8.30
2023-02-01T15:06:02.664Z,8.20
2023-02-01T15:08:33.017Z,8.18
2023-02-01T15:11:04.608Z,5.32
2023-02-01T15:13:31.648Z,10.45
2023-02-01T15:16:16.381Z,6.55
2023-02-01T15:18:42.796Z,8.63
2023-02-01T15:21:28.618Z,5.80
2023-02-01T15:24:11.836Z,7.18
2023-02-01T15:26:38.198Z,4.47
2023-02-01T15:29:04.555Z,4.18
2023-02-01T15:31:41.646Z,5.10
2023-02-01T15:34:09.629Z,2.88
2023-02-01T15:36:36.019Z,6.53
2023-02-01T15:39:22.798Z,3.75
2023-02-01T15:42:12.744Z,3.30
2023-02-01T15:44:41.935Z,4.40
2023-02-01T15:47:24.886Z,3.22
2023-02-01T15:49:54.179Z,3.03
2023-02-01T15:52:40.767Z,4.10
2023-02-01T15:55:18.330Z,3.47
2023-02-01T15:57:45.337Z,4.78
2023-02-01T16:00:28.179Z,3.75
2023-02-01T16:03:03.191Z,3.22
2023-02-01T16:05:44.031Z,4.32
2023-02-01T16:08:13.051Z,5.32
2023-02-01T16:10:42.185Z,2.85
2023-02-01T16:13:08.738Z,3.17
2023-02-01T16:15:35.096Z,2.65
2023-02-01T16:18:01.448Z,3.00
2023-02-01T16:20:27.847Z,3.35
2023-02-01T16:22:54.183Z,2.40
2023-02-01T16:25:20.507Z,2.35
2023-02-01T16:27:46.884Z,3.40
2023-02-01T16:30:13.609Z,4.10
2023-02-01T16:32:40.009Z,3.28
2023-02-01T16:35:28.276Z,5.13
2023-02-01T16:37:55.092Z,6.43
2023-02-01T16:40:22.407Z,4.28
2023-02-01T16:42:51.126Z,5.30
2023-02-01T16:45:17.475Z,5.38
2023-02-01T16:47:50.779Z,4.43
2023-02-01T16:50:23.495Z,2.25
2023-02-01T16:52:51.336Z,4.00
2023-02-01T16:55:19.811Z,2.85
2023-02-01T16:57:49.099Z,4.60
2023-02-01T17:00:23.998Z,2.28
2023-02-01T17:02:51.113Z,2.05
2023-02-01T17:05:17.600Z,1.85
2023-02-01T17:07:43.960Z,3.95
2023-02-01T17:10:32.579Z,2.65
2023-02-01T17:12:59.516Z,2.63
2023-02-01T17:15:29.665Z,2.10
2023-02-01T17:17:56.004Z,3.22
2023-02-01T17:20:24.748Z,3.15
2023-02-01T17:22:52.001Z,3.83
2023-02-01T17:25:21.336Z,3.08
2023-02-01T17:27:48.951Z,3.10
2023-02-01T17:32:42.195Z,3.15
2023-02-01T17:35:29.290Z,6.05
2023-02-01T17:37:55.869Z,6.03
2023-02-01T17:40:22.239Z,3.58
2023-02-01T17:42:48.572Z,3.80
2023-02-01T17:45:32.812Z,3.53
2023-02-01T17:47:59.275Z,5.10
2023-02-01T17:50:27.989Z,3.83
2023-02-01T17:52:54.294Z,6.28
2023-02-01T17:55:23.876Z,4.82
2023-02-01T17:57:50.537Z,4.93
2023-02-01T18:00:18.630Z,4.93
2023-02-01T18:02:45.733Z,3.03
2023-02-01T18:05:29.351Z,4.43
2023-02-01T18:07:55.782Z,3.40
2023-02-01T18:10:22.172Z,6.47
2023-02-01T18:12:48.625Z,3.95
2023-02-01T18:15:18.129Z,3.05
2023-02-01T18:17:44.563Z,4.25
2023-02-01T18:20:19.348Z,3.00
2023-02-01T18:22:46.679Z,4.22
2023-02-01T18:25:27.205Z,2.50
2023-02-01T18:27:55.630Z,3.25
2023-02-01T18:30:24.547Z,2.22
2023-02-01T18:32:51.302Z,3.60
2023-02-01T18:35:24.138Z,4.43
2023-02-01T18:37:51.785Z,6.70
2023-02-01T18:42:46.027Z,5.20
2023-02-01T18:45:26.974Z,5.75
2023-02-01T18:47:53.483Z,4.90
2023-02-01T18:50:20.274Z,6.07
2023-02-01T18:52:46.979Z,5.88
2023-02-01T18:55:13.881Z,4.47
2023-02-01T18:57:40.818Z,7.38
2023-02-01T19:00:09.245Z,9.30
2023-02-01T19:02:35.756Z,7.05
2023-02-01T19:05:02.079Z,7.55
2023-02-01T19:07:28.525Z,5.03
2023-02-01T19:09:54.820Z,7.30
2023-02-01T19:12:21.245Z,7.13
2023-02-01T19:14:47.593Z,4.90
2023-02-01T19:17:13.926Z,7.03
2023-02-01T19:19:41.926Z,6.22
2023-02-01T19:22:08.391Z,7.05
2023-02-01T19:24:34.669Z,6.10
2023-02-01T19:27:00.965Z,9.73
2023-02-01T19:29:27.361Z,9.93
2023-02-01T19:31:53.718Z,11.82
2023-02-01T19:34:20.032Z,8.13
2023-02-01T19:36:46.371Z,8.73
2023-02-01T19:39:12.678Z,7.40
2023-02-01T19:41:38.976Z,4.85
2023-02-01T19:44:05.550Z,6.05
2023-02-01T19:46:31.907Z,8.20
2023-02-01T19:48:58.279Z,7.00
2023-02-01T19:51:24.646Z,6.43
2023-02-01T19:53:50.967Z,9.27
2023-02-01T19:56:17.271Z,9.35
2023-02-01T19:58:43.574Z,6.07
2023-02-01T20:01:09.014Z,11.13
2023-02-01T20:03:35.352Z,8.60
2023-02-01T20:06:01.844Z,8.30
2023-02-01T20:08:28.158Z,7.82
2023-02-01T20:10:54.491Z,11.95
2023-02-01T20:13:20.798Z,7.28
2023-02-01T20:15:47.312Z,14.93
2023-02-01T20:18:13.645Z,6.60
2023-02-01T20:20:40.951Z,10.95
2023-02-01T20:23:07.333Z,8.32
2023-02-01T20:25:36.408Z,14.68
2023-02-01T20:28:02.740Z,9.73
2023-02-01T20:30:29.096Z,8.18
2023-02-01T20:32:55.407Z,8.80
2023-02-01T20:35:22.032Z,11.10
2023-02-01T20:37:48.569Z,12.48
2023-02-01T20:40:14.911Z,14.55
2023-02-01T20:42:41.237Z,9.85
2023-02-01T20:45:08.115Z,9.57
2023-02-01T20:47:34.447Z,9.68
2023-02-01T20:50:00.741Z,11.43
2023-02-01T20:52:27.050Z,9.38
2023-02-01T20:54:53.342Z,12.35
2023-02-01T20:57:19.616Z,12.57
2023-02-01T20:59:45.937Z,6.07
2023-02-01T21:02:12.246Z,5.97
2023-02-01T21:04:38.595Z,4.63
2023-02-01T21:07:04.873Z,7.57
2023-02-01T21:09:31.186Z,9.13
2023-02-01T21:11:57.522Z,10.30
2023-02-01T21:14:23.850Z,5.32
2023-02-01T21:16:50.168Z,8.68
2023-02-01T21:19:17.820Z,9.57
2023-02-01T21:21:44.344Z,10.77
2023-02-01T21:24:10.671Z,7.18
2023-02-01T21:26:36.997Z,8.73
2023-02-01T21:29:03.284Z,6.35
2023-02-01T21:31:29.607Z,10.63
2023-02-01T21:33:55.933Z,5.38
2023-02-01T21:36:22.368Z,8.88
2023-02-01T21:38:50.210Z,8.70
2023-02-01T21:41:21.857Z,11.68
2023-02-01T21:43:48.152Z,9.00
2023-02-01T21:46:14.490Z,8.05
2023-02-01T21:49:04.888Z,5.90
2023-02-01T21:51:28.171Z,11.07
2023-02-01T21:53:54.525Z,9.50
2023-02-01T21:56:20.820Z,11.88
2023-02-01T21:58:47.169Z,9.70
2023-02-01T22:01:13.562Z,13.43
2023-02-01T22:03:39.908Z,10.88
2023-02-01T22:06:06.504Z,7.80
2023-02-01T22:08:38.782Z,5.70
2023-02-01T22:11:05.628Z,6.88
2023-02-01T22:13:31.976Z,5.47
2023-02-01T22:15:58.374Z,7.20
2023-02-01T22:18:24.630Z,9.35
2023-02-01T22:20:50.913Z,12.07
2023-02-01T22:23:17.214Z,5.07
2023-02-01T22:25:43.523Z,10.57
2023-02-01T22:28:30.355Z,9.73
2023-02-01T22:31:01.708Z,7.63
2023-02-01T22:33:28.334Z,3.83
2023-02-01T22:35:54.705Z,7.72
2023-02-01T22:38:21.012Z,13.00
2023-02-01T22:40:57.588Z,10.27
2023-02-01T22:43:24.449Z,11.57
2023-02-01T22:45:51.137Z,3.47
2023-02-01T22:48:17.641Z,5.35
2023-02-01T22:50:44.709Z,6.35
2023-02-01T22:53:11.381Z,6.85
2023-02-01T22:55:38.148Z,7.65
2023-02-01T22:58:04.464Z,8.50
2023-02-01T23:00:30.793Z,6.88
2023-02-01T23:02:57.097Z,4.50
2023-02-01T23:05:23.747Z,9.85
2023-02-01T23:07:50.953Z,5.88
2023-02-01T23:10:18.646Z,7.68
2023-02-01T23:12:48.111Z,8.35
2023-02-01T23:15:15.001Z,8.73
2023-02-01T23:17:42.507Z,6.63
2023-02-01T23:20:12.855Z,9.85
2023-02-01T23:22:39.135Z,6.97
2023-02-01T23:25:05.879Z,8.50
2023-02-01T23:27:32.193Z,6.90
2023-02-01T23:29:58.505Z,7.65
2023-02-01T23:32:24.869Z,7.05
2023-02-01T23:34:51.152Z,11.13
2023-02-01T23:37:17.422Z,8.02
2023-02-01T23:39:43.709Z,9.82
2023-02-01T23:42:10.040Z,10.68
2023-02-01T23:44:36.319Z,9.80
2023-02-01T23:47:02.657Z,5.85
2023-02-01T23:49:28.943Z,8.07
2023-02-01T23:51:55.340Z,9.07
2023-02-01T23:54:23.171Z,9.43
2023-02-01T23:56:50.232Z,5.75
2023-02-01T23:59:19.102Z,6.68
